createdAt,value
2019-01-28T00:00:01.255Z,47.90
2019-01-28T00:02:29.602Z,48.00
2019-01-28T00:04:58.996Z,48.10
2019-01-28T00:07:27.439Z,48.10
2019-01-28T00:09:55.868Z,48.00
2019-01-28T00:12:24.225Z,47.90
2019-01-28T00:14:52.579Z,47.80
2019-01-28T00:17:21.003Z,47.90
2019-01-28T00:19:49.347Z,47.80
2019-01-28T00:22:17.711Z,47.70
2019-01-28T00:24:46.065Z,47.60
2019-01-28T00:27:14.429Z,47.20
2019-01-28T00:29:42.777Z,47.20
2019-01-28T00:32:11.157Z,46.90
2019-01-28T00:34:39.530Z,46.70
2019-01-28T00:37:08.007Z,46.80
2019-01-28T00:39:36.424Z,47.00
2019-01-28T00:42:04.883Z,47.30
2019-01-28T00:44:33.193Z,47.30
2019-01-28T00:47:01.486Z,47.30
2019-01-28T00:49:29.895Z,46.90
2019-01-28T00:51:58.280Z,46.40
2019-01-28T00:54:26.683Z,46.60
2019-01-28T00:56:55.079Z,46.50
2019-01-28T00:59:23.371Z,46.50
2019-01-28T01:01:53.359Z,46.40
2019-01-28T01:04:21.727Z,46.50
2019-01-28T01:06:50.039Z,46.60
2019-01-28T01:09:18.342Z,46.70
2019-01-28T01:11:46.704Z,46.70
2019-01-28T01:14:15.137Z,46.50
2019-01-28T01:16:43.568Z,46.60
2019-01-28T01:19:11.902Z,46.40
2019-01-28T01:21:40.217Z,46.50
2019-01-28T01:24:08.521Z,46.60
2019-01-28T01:26:36.802Z,46.60
2019-01-28T01:29:05.136Z,46.70
2019-01-28T01:31:33.494Z,46.40
2019-01-28T01:34:01.879Z,46.50
2019-01-28T01:36:30.251Z,46.40
2019-01-28T01:38:58.681Z,46.40
2019-01-28T01:41:27.071Z,46.80
2019-01-28T01:43:55.424Z,46.50
2019-01-28T01:46:23.861Z,46.60
2019-01-28T01:48:52.216Z,46.80
2019-01-28T01:51:20.623Z,46.90
2019-01-28T01:53:49.032Z,47.10
2019-01-28T01:56:17.455Z,47.30
2019-01-28T01:58:45.837Z,47.50
2019-01-28T02:01:14.232Z,47.40
2019-01-28T02:03:42.625Z,47.00
2019-01-28T02:06:10.918Z,47.00
2019-01-28T02:08:39.388Z,46.90
2019-01-28T02:11:07.737Z,47.10
2019-01-28T02:13:36.127Z,47.20
2019-01-28T02:16:04.644Z,47.40
2019-01-28T02:18:33.050Z,47.30
2019-01-28T02:21:01.425Z,47.40
2019-01-28T02:23:29.810Z,47.40
2019-01-28T02:25:58.210Z,47.20
2019-01-28T02:28:26.592Z,47.20
2019-01-28T02:30:54.970Z,46.90
2019-01-28T02:33:23.250Z,46.70
2019-01-28T02:35:51.648Z,46.50
2019-01-28T02:38:20.020Z,46.50
2019-01-28T02:40:48.412Z,46.20
2019-01-28T02:43:16.911Z,46.10
2019-01-28T02:45:45.281Z,46.20
2019-01-28T02:48:13.687Z,45.90
2019-01-28T02:50:42.058Z,45.70
2019-01-28T02:53:10.429Z,45.50
2019-01-28T02:55:38.823Z,45.10
2019-01-28T02:58:07.181Z,45.30
2019-01-28T03:00:35.501Z,45.40
2019-01-28T03:03:03.877Z,45.30
2019-01-28T03:05:32.284Z,45.20
2019-01-28T03:08:00.681Z,45.20
2019-01-28T03:10:29.075Z,45.30
2019-01-28T03:12:57.444Z,44.70
2019-01-28T03:15:25.839Z,44.50
2019-01-28T03:17:54.213Z,44.60
2019-01-28T03:20:22.608Z,44.20
2019-01-28T03:22:51.050Z,44.30
2019-01-28T03:25:19.495Z,44.30
2019-01-28T03:27:47.857Z,44.40
2019-01-28T03:30:18.829Z,44.30
2019-01-28T03:32:47.551Z,44.50
2019-01-28T03:35:15.929Z,44.30
2019-01-28T03:37:44.304Z,44.20
2019-01-28T03:40:14.921Z,44.30
2019-01-28T03:42:43.393Z,44.30
2019-01-28T03:45:14.119Z,44.80
2019-01-28T03:47:42.426Z,44.00
2019-01-28T03:50:13.190Z,43.80
2019-01-28T03:52:41.666Z,43.90
2019-01-28T03:55:11.893Z,43.90
2019-01-28T03:57:40.264Z,44.00
2019-01-28T04:00:12.026Z,44.10
2019-01-28T04:02:40.428Z,44.10
2019-01-28T04:05:10.034Z,44.10
2019-01-28T04:07:38.430Z,44.10
2019-01-28T04:10:15.597Z,44.10
2019-01-28T04:12:43.998Z,43.60
2019-01-28T04:15:15.118Z,44.00
2019-01-28T04:17:43.498Z,44.00
2019-01-28T04:20:14.025Z,44.00
2019-01-28T04:22:42.404Z,43.80
2019-01-28T04:25:11.734Z,43.80
2019-01-28T04:27:41.008Z,43.50
2019-01-28T04:30:12.857Z,43.50
2019-01-28T04:32:41.237Z,43.50
2019-01-28T04:35:09.651Z,43.20
2019-01-28T04:37:38.094Z,43.00
2019-01-28T04:40:09.446Z,43.20
2019-01-28T04:42:37.802Z,43.10
2019-01-28T04:45:09.527Z,42.80
2019-01-28T04:47:37.887Z,42.80
2019-01-28T04:50:09.820Z,42.60
2019-01-28T04:52:38.198Z,42.80
2019-01-28T04:55:07.733Z,42.70
2019-01-28T04:57:36.117Z,42.70
2019-01-28T05:00:07.763Z,42.60
2019-01-28T05:02:36.147Z,42.70
2019-01-28T05:05:05.563Z,42.50
2019-01-28T05:07:33.876Z,42.50
2019-01-28T05:10:02.622Z,42.20
2019-01-28T05:12:31.018Z,42.10
2019-01-28T05:15:00.925Z,42.10
2019-01-28T05:17:29.251Z,41.90
2019-01-28T05:19:57.575Z,41.70
2019-01-28T05:22:25.951Z,41.80
2019-01-28T05:24:54.309Z,41.70
2019-01-28T05:27:22.706Z,41.60
2019-01-28T05:29:51.066Z,41.30
2019-01-28T05:32:19.497Z,41.20
2019-01-28T05:34:47.875Z,41.20
2019-01-28T05:37:17.937Z,40.90
2019-01-28T05:39:46.299Z,41.10
2019-01-28T05:42:14.653Z,41.00
2019-01-28T05:44:43.023Z,40.90
2019-01-28T05:47:11.430Z,41.10
2019-01-28T05:49:39.819Z,41.10
2019-01-28T05:52:08.231Z,41.10
2019-01-28T05:54:36.627Z,40.90
2019-01-28T05:57:05.017Z,41.00
2019-01-28T05:59:33.391Z,41.00
2019-01-28T06:02:01.761Z,40.90
2019-01-28T06:04:30.153Z,40.80
2019-01-28T06:06:58.530Z,40.90
2019-01-28T06:09:26.961Z,41.00
2019-01-28T06:11:55.316Z,40.90
2019-01-28T06:14:23.693Z,41.20
2019-01-28T06:16:52.045Z,41.20
2019-01-28T06:19:20.461Z,41.30
2019-01-28T06:21:48.836Z,41.30
2019-01-28T06:24:17.201Z,41.30
2019-01-28T06:26:45.499Z,41.20
2019-01-28T06:29:13.885Z,41.20
2019-01-28T06:31:42.281Z,41.20
2019-01-28T06:34:10.647Z,40.90
2019-01-28T06:36:39.017Z,41.10
2019-01-28T06:39:08.663Z,41.00
2019-01-28T06:41:37.083Z,41.00
2019-01-28T06:44:05.429Z,40.90
2019-01-28T06:46:33.749Z,41.00
2019-01-28T06:49:02.133Z,41.00
2019-01-28T06:51:30.487Z,41.00
2019-01-28T06:53:58.867Z,41.10
2019-01-28T06:56:27.188Z,40.90
2019-01-28T06:58:55.557Z,40.90
2019-01-28T07:01:23.947Z,40.70
2019-01-28T07:03:52.271Z,40.60
2019-01-28T07:06:20.613Z,40.60
2019-01-28T07:08:48.969Z,40.60
2019-01-28T07:11:17.409Z,40.40
2019-01-28T07:13:45.719Z,40.60
2019-01-28T07:16:14.067Z,40.60
2019-01-28T07:18:42.390Z,40.60
2019-01-28T07:21:10.761Z,40.70
2019-01-28T07:23:39.157Z,40.70
2019-01-28T07:26:07.513Z,40.80
2019-01-28T07:28:35.879Z,40.60
2019-01-28T07:31:04.237Z,40.20
2019-01-28T07:33:32.548Z,40.50
2019-01-28T07:36:00.868Z,40.20
2019-01-28T07:38:29.247Z,40.20
2019-01-28T07:40:57.642Z,40.10
2019-01-28T07:43:26.017Z,40.10
2019-01-28T07:45:54.339Z,40.10
2019-01-28T07:48:22.812Z,40.30
2019-01-28T07:50:51.174Z,40.20
2019-01-28T07:53:19.545Z,40.30
2019-01-28T07:55:47.902Z,40.20
2019-01-28T07:58:16.217Z,40.30
2019-01-28T08:00:44.612Z,40.30
2019-01-28T08:03:13.035Z,40.60
2019-01-28T08:05:41.422Z,40.70
2019-01-28T08:08:09.815Z,41.10
2019-01-28T08:10:38.207Z,41.30
2019-01-28T08:13:06.556Z,41.60
2019-01-28T08:15:34.883Z,41.80
2019-01-28T08:18:10.270Z,42.00
2019-01-28T08:20:33.271Z,41.90
2019-01-28T08:23:01.590Z,41.70
2019-01-28T08:25:29.942Z,41.80
2019-01-28T08:27:58.240Z,41.70
2019-01-28T08:30:29.082Z,41.60
2019-01-28T08:32:57.457Z,41.50
2019-01-28T08:35:26.758Z,41.50
2019-01-28T08:37:55.139Z,41.40
2019-01-28T08:40:23.493Z,41.40
2019-01-28T08:42:51.834Z,41.20
2019-01-28T08:45:20.123Z,41.20
2019-01-28T08:47:48.477Z,41.30
2019-01-28T08:50:19.636Z,41.30
2019-01-28T08:52:47.976Z,41.30
2019-01-28T08:55:21.200Z,41.40
2019-01-28T08:57:49.652Z,41.40
2019-01-28T09:00:32.166Z,41.50
2019-01-28T09:03:00.659Z,41.40
2019-01-28T09:05:29.046Z,41.60
2019-01-28T09:07:57.414Z,41.70
2019-01-28T09:10:27.663Z,41.80
2019-01-28T09:12:56.075Z,41.40
2019-01-28T09:15:24.852Z,41.70
2019-01-28T09:17:53.238Z,41.10
2019-01-28T09:20:24.210Z,41.10
2019-01-28T09:22:52.590Z,41.30
2019-01-28T09:25:20.963Z,41.10
2019-01-28T09:27:49.236Z,41.20
2019-01-28T09:30:31.010Z,40.50
2019-01-28T09:32:59.380Z,40.70
2019-01-28T09:35:28.076Z,40.80
2019-01-28T09:37:56.465Z,40.70
2019-01-28T09:40:26.996Z,40.90
2019-01-28T09:42:55.362Z,41.30
2019-01-28T09:45:36.044Z,41.00
2019-01-28T09:48:05.360Z,41.00
2019-01-28T09:50:33.720Z,41.10
2019-01-28T09:53:02.038Z,41.00
2019-01-28T09:55:30.352Z,41.10
2019-01-28T09:57:58.708Z,41.00
2019-01-28T10:00:36.257Z,41.10
2019-01-28T10:03:05.291Z,41.60
2019-01-28T10:05:33.679Z,40.60
2019-01-28T10:08:02.070Z,41.00
2019-01-28T10:10:30.585Z,40.80
2019-01-28T10:12:58.990Z,40.80
2019-01-28T10:15:28.990Z,40.80
2019-01-28T10:17:57.552Z,40.70
2019-01-28T10:20:31.405Z,40.90
2019-01-28T10:22:59.755Z,40.90
2019-01-28T10:25:28.170Z,41.00
2019-01-28T10:27:58.939Z,41.20
2019-01-28T10:30:35.983Z,41.40
2019-01-28T10:33:04.971Z,41.60
2019-01-28T10:35:33.344Z,41.80
2019-01-28T10:38:01.781Z,41.70
2019-01-28T10:40:32.219Z,41.70
2019-01-28T10:43:00.596Z,41.80
2019-01-28T10:45:29.007Z,42.20
2019-01-28T10:48:00.646Z,41.90
2019-01-28T10:50:28.343Z,42.20
2019-01-28T10:52:56.709Z,42.00
2019-01-28T10:55:25.980Z,42.30
2019-01-28T10:57:54.891Z,42.20
2019-01-28T11:00:44.366Z,42.50
2019-01-28T11:03:14.017Z,42.60
2019-01-28T11:05:42.406Z,42.90
2019-01-28T11:08:10.795Z,43.10
2019-01-28T11:10:39.182Z,43.40
2019-01-28T11:13:07.824Z,43.50
2019-01-28T11:15:36.309Z,43.50
2019-01-28T11:18:10.568Z,43.60
2019-01-28T11:20:39.150Z,43.60
2019-01-28T11:23:07.601Z,43.70
2019-01-28T11:25:35.923Z,43.50
2019-01-28T11:28:04.351Z,43.60
2019-01-28T11:30:43.410Z,43.70
2019-01-28T11:33:11.896Z,43.60
2019-01-28T11:35:40.502Z,43.80
2019-01-28T11:38:08.902Z,43.60
2019-01-28T11:40:37.259Z,43.50
2019-01-28T11:43:05.589Z,43.20
2019-01-28T11:45:39.661Z,43.20
2019-01-28T11:48:07.976Z,43.10
2019-01-28T11:50:36.352Z,43.50
2019-01-28T11:53:04.912Z,43.50
2019-01-28T11:55:33.232Z,43.20
2019-01-28T11:58:01.638Z,43.30
2019-01-28T12:00:34.857Z,43.30
2019-01-28T12:03:03.204Z,43.40
2019-01-28T12:05:31.581Z,43.30
2019-01-28T12:07:59.965Z,42.90
2019-01-28T12:10:28.355Z,42.70
2019-01-28T12:12:56.749Z,42.40
2019-01-28T12:15:25.129Z,42.20
2019-01-28T12:17:53.533Z,42.30
2019-01-28T12:20:23.800Z,41.90
2019-01-28T12:22:52.006Z,41.90
2019-01-28T12:25:20.309Z,41.70
2019-01-28T12:27:48.692Z,41.50
2019-01-28T12:30:28.229Z,41.30
2019-01-28T12:32:56.592Z,41.70
2019-01-28T12:35:24.904Z,41.70
2019-01-28T12:37:53.273Z,41.70
2019-01-28T12:40:22.605Z,41.80
2019-01-28T12:42:52.555Z,42.10
2019-01-28T12:45:26.473Z,42.40
2019-01-28T12:47:54.888Z,42.60
2019-01-28T12:50:24.188Z,42.80
2019-01-28T12:52:52.600Z,43.00
2019-01-28T12:55:23.364Z,43.00
2019-01-28T12:57:51.744Z,43.30
2019-01-28T13:00:35.312Z,43.70
2019-01-28T13:03:03.713Z,43.90
2019-01-28T13:05:32.112Z,44.10
2019-01-28T13:08:00.479Z,44.30
2019-01-28T13:10:28.860Z,44.50
2019-01-28T13:12:57.234Z,44.80
2019-01-28T13:15:33.568Z,44.90
2019-01-28T13:18:01.929Z,44.80
2019-01-28T13:20:30.220Z,44.80
2019-01-28T13:22:58.610Z,44.90
2019-01-28T13:25:31.958Z,45.00
2019-01-28T13:28:00.337Z,45.00
2019-01-28T13:30:32.727Z,44.80
2019-01-28T13:33:01.099Z,44.90
2019-01-28T13:35:29.535Z,45.00
2019-01-28T13:37:57.837Z,45.20
2019-01-28T13:40:26.240Z,45.20
2019-01-28T13:42:54.602Z,45.30
2019-01-28T13:45:23.722Z,45.30
2019-01-28T13:47:52.861Z,45.40
2019-01-28T13:50:23.846Z,45.50
2019-01-28T13:52:52.246Z,45.50
2019-01-28T13:55:21.922Z,45.30
2019-01-28T13:57:50.226Z,45.90
2019-01-28T14:00:26.566Z,45.90
2019-01-28T14:02:54.999Z,45.70
2019-01-28T14:05:23.361Z,45.60
2019-01-28T14:07:51.726Z,45.80
2019-01-28T14:10:21.374Z,45.80
2019-01-28T14:12:49.806Z,45.40
2019-01-28T14:15:26.738Z,45.40
2019-01-28T14:17:55.037Z,45.70
2019-01-28T14:20:25.947Z,45.80
2019-01-28T14:22:54.346Z,45.60
2019-01-28T14:25:22.705Z,45.80
2019-01-28T14:27:51.092Z,46.10
2019-01-28T14:30:40.566Z,46.20
2019-01-28T14:33:09.022Z,46.30
2019-01-28T14:35:38.141Z,46.40
2019-01-28T14:38:07.873Z,46.50
2019-01-28T14:40:36.992Z,46.20
2019-01-28T14:43:05.388Z,46.20
2019-01-28T14:45:33.767Z,45.80
2019-01-28T14:48:02.160Z,45.80
2019-01-28T14:50:35.383Z,45.80
2019-01-28T14:53:03.687Z,46.30
2019-01-28T14:55:32.070Z,46.80
2019-01-28T14:58:00.464Z,46.80
2019-01-28T15:00:34.570Z,47.00
2019-01-28T15:03:03.035Z,47.00
2019-01-28T15:05:31.429Z,47.50
2019-01-28T15:07:59.881Z,47.60
2019-01-28T15:10:28.447Z,47.80
2019-01-28T15:12:56.745Z,48.00
2019-01-28T15:15:33.600Z,48.20
2019-01-28T15:18:01.907Z,48.20
2019-01-28T15:20:30.613Z,48.20
2019-01-28T15:22:59.563Z,48.30
2019-01-28T15:25:28.102Z,48.20
2019-01-28T15:27:56.514Z,48.30
2019-01-28T15:30:29.613Z,48.30
2019-01-28T15:32:58.104Z,48.40
2019-01-28T15:35:26.522Z,48.20
2019-01-28T15:37:54.965Z,48.30
2019-01-28T15:40:28.814Z,48.30
2019-01-28T15:42:57.157Z,48.30
2019-01-28T15:45:28.236Z,48.40
2019-01-28T15:47:56.687Z,48.50
2019-01-28T15:50:25.078Z,48.60
2019-01-28T15:52:53.424Z,48.80
2019-01-28T15:55:27.383Z,49.00
2019-01-28T15:57:55.725Z,49.30
2019-01-28T16:00:27.027Z,49.30
2019-01-28T16:02:55.791Z,49.30
2019-01-28T16:05:24.223Z,49.40
2019-01-28T16:07:52.594Z,49.60
2019-01-28T16:10:22.032Z,49.60
2019-01-28T16:12:50.418Z,49.80
2019-01-28T16:15:30.948Z,49.80
2019-01-28T16:17:59.409Z,49.60
2019-01-28T16:20:27.813Z,49.60
2019-01-28T16:22:56.171Z,49.50
2019-01-28T16:25:24.551Z,49.40
2019-01-28T16:27:53.024Z,49.50
2019-01-28T16:30:26.294Z,49.50
2019-01-28T16:32:54.254Z,49.40
2019-01-28T16:35:22.843Z,49.40
2019-01-28T16:37:52.390Z,49.50
2019-01-28T16:40:23.504Z,49.50
2019-01-28T16:42:51.890Z,49.60
2019-01-28T16:45:21.897Z,49.80
2019-01-28T16:47:50.378Z,49.70
2019-01-28T16:50:26.796Z,49.90
2019-01-28T16:52:52.110Z,50.00
2019-01-28T16:55:20.438Z,50.10
2019-01-28T16:57:48.747Z,50.30
2019-01-28T17:00:29.378Z,50.30
2019-01-28T17:02:57.808Z,50.40
2019-01-28T17:05:26.857Z,50.40
2019-01-28T17:07:55.323Z,50.50
2019-01-28T17:10:23.964Z,50.50
2019-01-28T17:12:52.369Z,50.60
2019-01-28T17:15:22.251Z,50.60
2019-01-28T17:17:50.710Z,50.60
2019-01-28T17:20:35.241Z,50.60
2019-01-28T17:22:58.017Z,50.80
2019-01-28T17:25:29.027Z,50.70
2019-01-28T17:27:57.445Z,50.80
2019-01-28T17:30:37.427Z,51.00
2019-01-28T17:33:05.727Z,50.90
2019-01-28T17:35:34.122Z,51.00
2019-01-28T17:38:02.462Z,51.00
2019-01-28T17:40:31.986Z,51.60
2019-01-28T17:43:00.384Z,51.20
2019-01-28T17:45:29.677Z,51.30
2019-01-28T17:47:58.026Z,51.20
2019-01-28T17:50:27.055Z,51.30
2019-01-28T17:52:55.329Z,51.20
2019-01-28T17:55:25.122Z,51.30
2019-01-28T17:57:53.499Z,51.40
2019-01-28T18:00:44.416Z,51.30
2019-01-28T18:03:12.853Z,51.30
2019-01-28T18:05:41.232Z,51.30
2019-01-28T18:08:09.607Z,51.40
2019-01-28T18:10:37.982Z,51.50
2019-01-28T18:13:06.271Z,51.50
2019-01-28T18:15:34.641Z,51.50
2019-01-28T18:18:03.040Z,51.60
2019-01-28T18:20:31.498Z,51.50
2019-01-28T18:22:59.916Z,51.50
2019-01-28T18:25:33.659Z,51.40
2019-01-28T18:28:02.019Z,51.50
2019-01-28T18:30:36.614Z,51.90
2019-01-28T18:33:05.009Z,51.50
2019-01-28T18:35:33.393Z,51.50
2019-01-28T18:38:01.785Z,51.50
2019-01-28T18:40:30.091Z,51.40
2019-01-28T18:42:58.469Z,51.40
2019-01-28T18:45:26.827Z,51.40
2019-01-28T18:47:55.202Z,51.30
2019-01-28T18:50:24.630Z,51.30
2019-01-28T18:52:53.068Z,51.20
2019-01-28T18:55:22.211Z,51.20
2019-01-28T18:57:50.506Z,51.30
2019-01-28T19:00:30.286Z,51.20
2019-01-28T19:02:58.602Z,51.30
2019-01-28T19:05:37.603Z,51.30
2019-01-28T19:08:13.456Z,51.30
2019-01-28T19:10:43.383Z,51.30
2019-01-28T19:13:15.765Z,51.30
2019-01-28T19:15:48.789Z,51.30
2019-01-28T19:18:21.601Z,51.60
2019-01-28T19:20:54.158Z,51.20
2019-01-28T19:23:22.534Z,51.30
2019-01-28T19:25:50.943Z,51.20
2019-01-28T19:28:19.414Z,51.20
2019-01-28T19:30:47.791Z,51.30
2019-01-28T19:33:16.113Z,51.20
2019-01-28T19:35:44.511Z,51.10
2019-01-28T19:38:12.917Z,51.10
2019-01-28T19:40:41.303Z,51.00
2019-01-28T19:43:09.664Z,50.90
2019-01-28T19:45:38.070Z,50.90
2019-01-28T19:48:06.535Z,50.90
2019-01-28T19:50:34.941Z,51.30
2019-01-28T19:53:03.371Z,50.90
2019-01-28T19:55:31.747Z,50.90
2019-01-28T19:58:00.138Z,50.90
2019-01-28T20:00:28.508Z,50.90
2019-01-28T20:02:58.234Z,50.90
2019-01-28T20:05:26.863Z,50.90
2019-01-28T20:07:55.302Z,50.90
2019-01-28T20:10:23.659Z,50.90
2019-01-28T20:12:52.592Z,51.00
2019-01-28T20:15:23.223Z,51.10
2019-01-28T20:17:52.675Z,51.00
2019-01-28T20:20:21.619Z,51.00
2019-01-28T20:22:50.449Z,51.00
2019-01-28T20:25:18.992Z,50.90
2019-01-28T20:27:47.403Z,50.90
2019-01-28T20:30:19.212Z,50.80
2019-01-28T20:32:48.102Z,50.80
2019-01-28T20:35:17.137Z,50.90
2019-01-28T20:37:45.758Z,50.90
2019-01-28T20:40:15.809Z,51.30
2019-01-28T20:42:44.169Z,50.80
2019-01-28T20:45:21.129Z,50.80
2019-01-28T20:47:51.932Z,50.80
2019-01-28T20:50:25.497Z,50.70
2019-01-28T20:52:54.213Z,50.70
2019-01-28T20:55:22.876Z,50.80
2019-01-28T20:57:51.332Z,50.80
2019-01-28T21:00:21.804Z,50.80
2019-01-28T21:02:50.167Z,51.10
2019-01-28T21:05:22.600Z,50.70
2019-01-28T21:07:50.986Z,50.70
2019-01-28T21:10:20.915Z,50.80
2019-01-28T21:12:49.989Z,50.70
2019-01-28T21:15:18.667Z,50.80
2019-01-28T21:17:48.039Z,50.70
2019-01-28T21:20:23.221Z,50.70
2019-01-28T21:22:51.845Z,51.10
2019-01-28T21:25:25.574Z,50.80
2019-01-28T21:27:53.913Z,50.70
2019-01-28T21:30:30.715Z,50.80
2019-01-28T21:32:59.115Z,50.70
2019-01-28T21:35:41.027Z,50.70
2019-01-28T21:38:10.992Z,50.70
2019-01-28T21:40:39.388Z,50.60
2019-01-28T21:43:07.765Z,50.50
2019-01-28T21:45:36.311Z,50.40
2019-01-28T21:48:04.720Z,50.10
2019-01-28T21:50:33.087Z,49.80
2019-01-28T21:53:01.423Z,49.80
2019-01-28T21:55:29.810Z,49.70
2019-01-28T21:57:58.303Z,49.60
2019-01-28T22:00:26.816Z,49.20
2019-01-28T22:02:55.336Z,48.80
2019-01-28T22:05:23.641Z,49.10
2019-01-28T22:07:51.999Z,49.30
2019-01-28T22:10:20.421Z,48.60
2019-01-28T22:12:48.761Z,48.40
2019-01-28T22:15:18.033Z,48.50
2019-01-28T22:17:46.406Z,48.40
2019-01-28T22:20:15.397Z,48.20
2019-01-28T22:22:43.904Z,48.20
2019-01-28T22:25:16.819Z,48.00
2019-01-28T22:27:46.922Z,47.90
2019-01-28T22:30:22.952Z,48.00
2019-01-28T22:32:51.339Z,47.90
2019-01-28T22:35:19.712Z,47.80
2019-01-28T22:37:48.205Z,47.70
2019-01-28T22:40:17.789Z,47.80
2019-01-28T22:42:46.254Z,47.60
2019-01-28T22:45:19.527Z,47.40
2019-01-28T22:47:49.605Z,47.50
2019-01-28T22:50:19.240Z,46.90
2019-01-28T22:52:47.739Z,47.10
2019-01-28T22:55:18.772Z,47.00
2019-01-28T22:57:47.185Z,47.10
2019-01-28T23:00:20.438Z,47.00
2019-01-28T23:02:48.878Z,47.00
2019-01-28T23:05:17.466Z,47.20
2019-01-28T23:07:45.907Z,46.60
2019-01-28T23:10:14.392Z,46.40
2019-01-28T23:12:42.751Z,46.50
2019-01-28T23:15:11.169Z,46.60
2019-01-28T23:17:39.554Z,46.70
2019-01-28T23:20:08.645Z,46.80
2019-01-28T23:22:37.106Z,46.90
2019-01-28T23:25:06.432Z,46.90
2019-01-28T23:27:36.573Z,46.90
2019-01-28T23:30:07.732Z,46.70
2019-01-28T23:32:36.121Z,46.70
2019-01-28T23:35:07.258Z,46.80
2019-01-28T23:37:35.699Z,46.70
2019-01-28T23:40:05.752Z,46.50
2019-01-28T23:42:34.279Z,46.50
2019-01-28T23:45:05.982Z,46.40
2019-01-28T23:47:34.536Z,46.70
2019-01-28T23:50:02.915Z,46.30
2019-01-28T23:52:31.325Z,46.00
2019-01-28T23:54:59.699Z,46.10
2019-01-28T23:57:28.086Z,46.00
2019-01-28T23:59:56.460Z,45.70
